Time;durP1;ratioP1;P1;durP2;ratioP2;P2;SDS_P1;SDS_P2;PMS_P1;PMS_P2;Temp;Humidity;BMP_temperature;BMP_pressure;BME280_temperature;BME280_humidity;BME280_pressure;Samples;Min_cycle;Max_cycle;Signal;HPM_P1;HPM_P2
2024/02/02 00:02:16;;;;;;;10.05;3.97;;;;;;;;;;4826600;29;20058;-88
2024/02/02 00:04:48;;;;;;;15.60;2.40;;;;;;;;;;4844102;29;20425;-87
2024/02/02 00:07:17;;;;;;;9.13;2.58;;;;;;;;;;4844928;29;20054;-87
2024/02/02 00:09:49;;;;;;;3.58;2.00;;;;;;;;;;4843730;29;20061;-88
2024/02/02 00:12:19;;;;;;;4.53;1.70;;;;;;;;;;4843531;29;20053;-87
2024/02/02 00:14:55;;;;;;;4.90;1.70;;;;;;;;;;4844452;29;20053;-89
2024/02/02 00:17:38;;;;;;;4.95;1.70;;;;;;;;;;4844939;29;20060;-86
2024/02/02 00:20:11;;;;;;;7.35;1.75;;;;;;;;;;4845843;29;20068;-88
2024/02/02 00:22:43;;;;;;;5.00;1.92;;;;;;;;;;4844351;29;20049;-87
2024/02/02 00:25:13;;;;;;;3.85;1.80;;;;;;;;;;4845635;29;20045;-87
2024/02/02 00:27:44;;;;;;;3.67;1.48;;;;;;;;;;4845180;29;20064;-87
2024/02/02 00:30:20;;;;;;;3.55;1.50;;;;;;;;;;4845082;29;20054;-88
2024/02/02 00:32:51;;;;;;;2.80;1.48;;;;;;;;;;4844330;29;20052;-84
2024/02/02 00:35:22;;;;;;;3.65;1.88;;;;;;;;;;4843375;29;20128;-88
2024/02/02 00:37:52;;;;;;;4.30;1.63;;;;;;;;;;4843853;29;20057;-87
2024/02/02 00:40:23;;;;;;;7.25;1.70;;;;;;;;;;4844220;29;20061;-90
2024/02/02 00:42:53;;;;;;;4.35;1.77;;;;;;;;;;4844206;29;20527;-89
2024/02/02 00:45:26;;;;;;;4.80;1.63;;;;;;;;;;4843394;29;20060;-88
2024/02/02 00:48:00;;;;;;;7.75;1.75;;;;;;;;;;4844518;29;20414;-88
2024/02/02 00:50:31;;;;;;;3.63;1.65;;;;;;;;;;4843802;29;20516;-88
2024/02/02 00:53:02;;;;;;;5.05;1.70;;;;;;;;;;4844582;29;20042;-89
2024/02/02 00:55:32;;;;;;;6.97;1.70;;;;;;;;;;4843607;29;20058;-88
2024/02/02 00:58:03;;;;;;;4.43;1.58;;;;;;;;;;4860190;29;20412;-86
2024/02/02 01:00:34;;;;;;;2.97;1.40;;;;;;;;;;4844149;29;20060;-87
2024/02/02 01:03:05;;;;;;;4.78;1.83;;;;;;;;;;4844934;29;20061;-87
2024/02/02 01:05:36;;;;;;;7.28;1.73;;;;;;;;;;4844758;29;20523;-86
2024/02/02 01:08:06;;;;;;;3.83;1.83;;;;;;;;;;4844291;29;20050;-87
2024/02/02 01:10:38;;;;;;;;;;;;;;;;;;4843849;29;20054;-88
2024/02/02 01:13:10;;;;;;;11.57;2.05;;;;;;;;;;4843915;29;19931;-89
2024/02/02 01:15:41;;;;;;;5.25;1.80;;;;;;;;;;4846570;29;20053;-87
2024/02/02 01:18:12;;;;;;;8.23;2.10;;;;;;;;;;4844253;29;20073;-89
2024/02/02 01:24:16;;;;;;;5.85;2.03;;;;;;;;;;4844756;29;20064;-89
2024/02/02 01:31:24;;;;;;;4.35;2.00;;;;;;;;;;4786618;29;20051;-87
2024/02/02 01:34:22;;;;;;;4.85;1.63;;;;;;;;;;4758040;29;20062;-88
2024/02/02 01:36:53;;;;;;;9.32;1.60;;;;;;;;;;4827240;29;20042;-86
2024/02/02 01:39:23;;;;;;;6.25;1.70;;;;;;;;;;4826067;29;20054;-87
2024/02/02 01:41:53;;;;;;;4.32;1.42;;;;;;;;;;4826114;29;20069;-86
2024/02/02 01:44:25;;;;;;;4.63;1.65;;;;;;;;;;4826729;29;20050;-87
2024/02/02 01:46:55;;;;;;;3.13;1.75;;;;;;;;;;4831587;29;20493;-88
2024/02/02 01:49:26;;;;;;;4.82;1.98;;;;;;;;;;4826069;29;20049;-86
2024/02/02 01:51:57;;;;;;;6.07;2.00;;;;;;;;;;4843255;29;20061;-88
2024/02/02 01:54:28;;;;;;;4.78;1.63;;;;;;;;;;4827051;29;20058;-86
2024/02/02 01:56:59;;;;;;;7.78;1.90;;;;;;;;;;4846503;29;20049;-89
2024/02/02 01:59:30;;;;;;;5.50;1.88;;;;;;;;;;4845041;29;20049;-85
2024/02/02 02:02:01;;;;;;;4.03;1.90;;;;;;;;;;4841018;29;20050;-87
2024/02/02 02:04:32;;;;;;;4.57;1.90;;;;;;;;;;4828725;29;20069;-85
2024/02/02 02:07:03;;;;;;;11.15;2.58;;;;;;;;;;4832047;29;20048;-86
2024/02/02 02:09:34;;;;;;;5.57;2.17;;;;;;;;;;4854050;29;20050;-90
2024/02/02 02:12:04;;;;;;;7.43;2.10;;;;;;;;;;4844955;29;20050;-89
2024/02/02 02:14:35;;;;;;;5.80;1.80;;;;;;;;;;4828996;29;20058;-88
2024/02/02 02:17:06;;;;;;;7.63;2.17;;;;;;;;;;4828347;29;20057;-90
2024/02/02 02:19:39;;;;;;;8.63;2.00;;;;;;;;;;4830828;29;20057;-86
2024/02/02 02:22:10;;;;;;;7.07;1.83;;;;;;;;;;4843554;29;20061;-88
2024/02/02 02:24:40;;;;;;;6.20;1.88;;;;;;;;;;4852215;29;20052;-89
2024/02/02 02:27:10;;;;;;;3.25;1.80;;;;;;;;;;4844576;29;20417;-86
2024/02/02 02:29:41;;;;;;;3.10;1.73;;;;;;;;;;4829935;29;20053;-86
2024/02/02 02:32:13;;;;;;;3.97;1.58;;;;;;;;;;4844860;29;20489;-87
2024/02/02 02:34:44;;;;;;;3.92;1.80;;;;;;;;;;4829810;29;20057;-86
2024/02/02 02:37:14;;;;;;;5.53;1.92;;;;;;;;;;4846625;29;20055;-87
2024/02/02 02:39:45;;;;;;;3.42;1.70;;;;;;;;;;4843053;29;20054;-88
2024/02/02 02:42:16;;;;;;;5.40;1.95;;;;;;;;;;4853485;29;20057;-88
2024/02/02 02:44:47;;;;;;;3.53;1.58;;;;;;;;;;4844365;29;20050;-87
2024/02/02 02:47:19;;;;;;;3.30;1.58;;;;;;;;;;4828458;29;20050;-86
2024/02/02 02:49:49;;;;;;;4.85;1.90;;;;;;;;;;4844703;29;20413;-88
2024/02/02 02:52:19;;;;;;;4.00;1.85;;;;;;;;;;4828205;29;20073;-86
2024/02/02 02:54:50;;;;;;;5.03;2.05;;;;;;;;;;4842289;29;20410;-85
2024/02/02 02:57:21;;;;;;;6.25;1.88;;;;;;;;;;4829209;29;20049;-89
2024/02/02 02:59:51;;;;;;;5.28;1.80;;;;;;;;;;4844069;29;20050;-87
2024/02/02 03:02:21;;;;;;;4.97;1.80;;;;;;;;;;4843686;29;20444;-87
2024/02/02 03:04:53;;;;;;;4.07;1.80;;;;;;;;;;4827915;29;20447;-88
2024/02/02 03:07:24;;;;;;;4.70;1.65;;;;;;;;;;4826454;29;20057;-86
2024/02/02 03:09:55;;;;;;;4.60;1.85;;;;;;;;;;4827857;29;20054;-89
2024/02/02 03:12:26;;;;;;;5.28;1.88;;;;;;;;;;4844004;29;20042;-87
2024/02/02 03:14:57;;;;;;;8.70;2.10;;;;;;;;;;4826573;29;20050;-86
2024/02/02 03:17:28;;;;;;;6.95;1.83;;;;;;;;;;4843759;29;20060;-88
2024/02/02 03:19:58;;;;;;;4.53;1.75;;;;;;;;;;4827108;29;20054;-86
2024/02/02 03:22:28;;;;;;;4.53;2.10;;;;;;;;;;4827507;29;20164;-87
2024/02/02 03:25:00;;;;;;;4.43;2.00;;;;;;;;;;4827346;29;20053;-87
2024/02/02 03:27:30;;;;;;;5.70;2.20;;;;;;;;;;4843482;29;20037;-87
2024/02/02 03:30:07;;;;;;;5.47;2.10;;;;;;;;;;4828665;29;20053;-87
2024/02/02 03:32:37;;;;;;;5.13;1.98;;;;;;;;;;4844470;29;20041;-89
2024/02/02 03:35:08;;;;;;;7.10;1.92;;;;;;;;;;4843045;29;20057;-89
2024/02/02 03:37:39;;;;;;;7.72;1.83;;;;;;;;;;4843271;29;20067;-86
2024/02/02 03:40:10;;;;;;;4.55;2.00;;;;;;;;;;4827139;29;20057;-88
2024/02/02 03:42:41;;;;;;;6.00;2.33;;;;;;;;;;4843342;29;20049;-87
2024/02/02 03:45:13;;;;;;;4.75;1.75;;;;;;;;;;4827055;29;20046;-86
2024/02/02 03:47:44;;;;;;;5.15;2.13;;;;;;;;;;4827503;29;20505;-88
2024/02/02 03:50:15;;;;;;;7.57;1.90;;;;;;;;;;4826302;29;20065;-85
2024/02/02 03:52:47;;;;;;;4.63;1.92;;;;;;;;;;4843844;29;20425;-87
2024/02/02 03:55:17;;;;;;;4.35;1.83;;;;;;;;;;4826868;29;20367;-86
2024/02/02 03:57:48;;;;;;;10.15;2.00;;;;;;;;;;4827153;29;20429;-85
2024/02/02 04:00:19;;;;;;;6.05;1.75;;;;;;;;;;4826513;29;20050;-87
2024/02/02 04:02:52;;;;;;;6.30;2.10;;;;;;;;;;4826633;29;20549;-86
2024/02/02 04:05:24;;;;;;;6.07;2.10;;;;;;;;;;4842828;29;20041;-84
2024/02/02 04:07:53;;;;;;;6.47;2.10;;;;;;;;;;4843075;29;20061;-88
2024/02/02 04:10:25;;;;;;;7.15;2.28;;;;;;;;;;4841640;29;20050;-85
2024/02/02 04:12:57;;;;;;;5.28;1.88;;;;;;;;;;4811885;29;20069;-87
2024/02/02 04:15:31;;;;;;;7.43;2.25;;;;;;;;;;4826638;29;20061;-86
2024/02/02 04:18:01;;;;;;;5.85;2.00;;;;;;;;;;4824976;29;20156;-85
2024/02/02 04:20:32;;;;;;;4.68;2.10;;;;;;;;;;4842567;29;20050;-87
2024/02/02 04:23:02;;;;;;;9.07;2.55;;;;;;;;;;4826156;29;20316;-87
2024/02/02 04:25:32;;;;;;;3.95;2.20;;;;;;;;;;4827572;29;20062;-87
2024/02/02 04:28:08;;;;;;;6.18;2.20;;;;;;;;;;4830013;29;20533;-88
2024/02/02 04:30:38;;;;;;;6.40;2.10;;;;;;;;;;4840538;29;20065;-85
2024/02/02 04:33:10;;;;;;;7.15;2.10;;;;;;;;;;4837100;29;20493;-85
2024/02/02 04:35:41;;;;;;;9.90;2.88;;;;;;;;;;4826751;29;20058;-85
2024/02/02 04:38:12;;;;;;;5.03;2.25;;;;;;;;;;4826085;29;20068;-85
2024/02/02 04:40:43;;;;;;;4.70;2.20;;;;;;;;;;4842963;29;20057;-87
2024/02/02 04:43:14;;;;;;;7.22;2.45;;;;;;;;;;4824997;29;20058;-85
2024/02/02 04:45:44;;;;;;;8.43;2.35;;;;;;;;;;4833674;29;20053;-85
2024/02/02 04:48:14;;;;;;;4.47;2.00;;;;;;;;;;4825985;29;20049;-85
2024/02/02 04:50:46;;;;;;;5.40;2.42;;;;;;;;;;4841989;29;20478;-86
2024/02/02 04:53:18;;;;;;;6.70;2.15;;;;;;;;;;4825423;29;20045;-86
2024/02/02 04:55:48;;;;;;;13.50;2.90;;;;;;;;;;4842292;29;20425;-86
2024/02/02 04:58:21;;;;;;;6.55;2.83;;;;;;;;;;4825821;29;20057;-87
2024/02/02 05:00:53;;;;;;;7.95;2.50;;;;;;;;;;4842212;29;20046;-87
2024/02/02 05:03:24;;;;;;;4.82;2.42;;;;;;;;;;4826506;29;20066;-86
2024/02/02 05:05:55;;;;;;;4.97;2.38;;;;;;;;;;4827147;29;20425;-86
2024/02/02 05:08:25;;;;;;;4.65;1.95;;;;;;;;;;4826344;29;20064;-87
2024/02/02 05:10:56;;;;;;;15.10;2.70;;;;;;;;;;4847846;29;20049;-84
2024/02/02 05:13:26;;;;;;;6.65;2.95;;;;;;;;;;4842212;29;20057;-86
2024/02/02 05:15:56;;;;;;;7.15;2.17;;;;;;;;;;4842245;29;20053;-86
2024/02/02 05:18:26;;;;;;;5.22;2.53;;;;;;;;;;4843242;29;20060;-83
2024/02/02 05:20:56;;;;;;;7.32;2.50;;;;;;;;;;4856692;29;20050;-87
2024/02/02 05:23:27;;;;;;;8.10;2.40;;;;;;;;;;4829016;29;20141;-86
2024/02/02 05:25:57;;;;;;;3.75;2.00;;;;;;;;;;4844487;29;20053;-86
2024/02/02 05:28:27;;;;;;;5.32;2.40;;;;;;;;;;4827586;29;20065;-88
2024/02/02 05:30:57;;;;;;;5.95;2.55;;;;;;;;;;4830303;29;20069;-86
2024/02/02 05:33:30;;;;;;;5.88;2.35;;;;;;;;;;4828251;29;20054;-86
2024/02/02 05:36:01;;;;;;;6.47;2.55;;;;;;;;;;4845221;29;20053;-87
2024/02/02 05:38:32;;;;;;;4.90;2.33;;;;;;;;;;4845140;29;20057;-86
2024/02/02 05:41:03;;;;;;;5.20;2.50;;;;;;;;;;4829812;29;20501;-83
2024/02/02 05:43:35;;;;;;;6.75;2.38;;;;;;;;;;4828381;29;20078;-85
2024/02/02 05:46:06;;;;;;;6.68;2.42;;;;;;;;;;4845134;29;20042;-86
2024/02/02 05:48:36;;;;;;;4.95;2.25;;;;;;;;;;4828262;29;20421;-86
2024/02/02 05:51:08;;;;;;;6.15;2.90;;;;;;;;;;4828555;29;20425;-86
2024/02/02 05:53:38;;;;;;;5.60;2.45;;;;;;;;;;4844509;29;20038;-87
2024/02/02 05:56:08;;;;;;;6.03;2.38;;;;;;;;;;4844440;29;20054;-85
2024/02/02 05:58:40;;;;;;;8.00;2.55;;;;;;;;;;4827727;29;20050;-85
2024/02/02 06:01:11;;;;;;;5.07;2.58;;;;;;;;;;4828741;29;20049;-86
2024/02/02 06:03:42;;;;;;;7.80;2.55;;;;;;;;;;4828659;29;20085;-85
2024/02/02 06:06:13;;;;;;;5.88;2.42;;;;;;;;;;4844262;29;20045;-85
2024/02/02 06:08:43;;;;;;;8.07;2.50;;;;;;;;;;4827936;29;20062;-83
2024/02/02 06:11:13;;;;;;;7.13;2.60;;;;;;;;;;4845196;29;20041;-89
2024/02/02 06:13:43;;;;;;;5.93;2.70;;;;;;;;;;4844614;29;20050;-86
2024/02/02 06:16:13;;;;;;;5.93;2.70;;;;;;;;;;4845753;29;20053;-85
2024/02/02 06:18:43;;;;;;;7.07;2.92;;;;;;;;;;4846657;29;20065;-86
2024/02/02 06:21:13;;;;;;;6.95;2.75;;;;;;;;;;4828273;29;20050;-85
2024/02/02 06:23:44;;;;;;;7.97;2.45;;;;;;;;;;4836610;29;20061;-85
2024/02/02 06:26:15;;;;;;;7.13;2.88;;;;;;;;;;4827726;29;20050;-85
2024/02/02 06:28:45;;;;;;;7.55;3.40;;;;;;;;;;4843348;29;20053;-85
2024/02/02 06:31:17;;;;;;;7.93;2.78;;;;;;;;;;4827808;29;20524;-87
2024/02/02 06:33:46;;;;;;;8.52;2.95;;;;;;;;;;4848659;29;20054;-87
2024/02/02 06:36:18;;;;;;;9.18;2.83;;;;;;;;;;4833138;29;20049;-86
2024/02/02 06:38:49;;;;;;;7.07;3.03;;;;;;;;;;4844077;29;20053;-85
2024/02/02 06:41:20;;;;;;;6.80;2.75;;;;;;;;;;4843712;29;20049;-83
2024/02/02 06:43:50;;;;;;;6.70;3.05;;;;;;;;;;4844524;29;20050;-85
2024/02/02 06:46:21;;;;;;;11.40;2.70;;;;;;;;;;4828118;29;20485;-84
2024/02/02 06:48:52;;;;;;;7.88;3.00;;;;;;;;;;4829939;29;20516;-86
2024/02/02 06:51:22;;;;;;;6.35;3.35;;;;;;;;;;4846758;29;20045;-87
2024/02/02 06:53:52;;;;;;;8.82;3.40;;;;;;;;;;4846128;29;20049;-84
2024/02/02 06:56:38;;;;;;;10.05;3.20;;;;;;;;;;4861510;29;20064;-83
2024/02/02 06:59:12;;;;;;;5.40;2.90;;;;;;;;;;4827008;29;20054;-82
2024/02/02 07:01:43;;;;;;;6.63;2.78;;;;;;;;;;4831102;29;20060;-83
2024/02/02 07:04:14;;;;;;;14.07;2.95;;;;;;;;;;4837726;29;20547;-84
2024/02/02 07:06:47;;;;;;;7.78;3.03;;;;;;;;;;4827125;29;20062;-85
2024/02/02 07:09:28;;;;;;;8.35;2.85;;;;;;;;;;4826776;29;20064;-87
2024/02/02 07:12:01;;;;;;;4.80;2.58;;;;;;;;;;4832488;29;20062;-86
2024/02/02 07:14:44;;;;;;;9.30;2.97;;;;;;;;;;4843549;29;20049;-87
2024/02/02 07:17:39;;;;;;;9.57;2.85;;;;;;;;;;4827767;29;20050;-86
2024/02/02 07:20:24;;;;;;;5.93;2.63;;;;;;;;;;4843151;29;20042;-86
2024/02/02 07:23:01;;;;;;;7.13;3.28;;;;;;;;;;4826923;29;20049;-86
2024/02/02 07:25:40;;;;;;;6.75;2.65;;;;;;;;;;4843026;29;20052;-87
2024/02/02 07:28:35;;;;;;;7.03;3.08;;;;;;;;;;4843193;29;20053;-86
2024/02/02 07:31:10;;;;;;;10.68;3.17;;;;;;;;;;4812674;29;20046;-84
2024/02/02 07:33:41;;;;;;;6.30;2.97;;;;;;;;;;4841995;29;20046;-85
2024/02/02 07:36:31;;;;;;;8.25;2.75;;;;;;;;;;4827204;29;20072;-86
2024/02/02 07:39:02;;;;;;;7.50;2.97;;;;;;;;;;4827481;29;20042;-86
2024/02/02 07:41:33;;;;;;;4.80;2.70;;;;;;;;;;4842909;29;20053;-85
2024/02/02 07:44:04;;;;;;;9.32;4.05;;;;;;;;;;4842840;29;20080;-85
2024/02/02 07:46:34;;;;;;;11.55;3.00;;;;;;;;;;4842414;29;20061;-86
2024/02/02 07:49:05;;;;;;;6.85;2.58;;;;;;;;;;4825813;29;20054;-86
2024/02/02 07:51:37;;;;;;;9.13;3.03;;;;;;;;;;4825595;29;20064;-84
2024/02/02 07:54:08;;;;;;;7.28;2.88;;;;;;;;;;4826921;29;20406;-84
2024/02/02 07:56:39;;;;;;;7.57;3.35;;;;;;;;;;4826174;29;20446;-84
2024/02/02 07:59:12;;;;;;;9.52;3.03;;;;;;;;;;4842884;29;20042;-84
2024/02/02 08:01:42;;;;;;;9.18;3.10;;;;;;;;;;4828460;29;20060;-83
2024/02/02 08:04:13;;;;;;;9.50;3.90;;;;;;;;;;4828838;29;20061;-83
2024/02/02 08:06:44;;;;;;;5.18;2.40;;;;;;;;;;4843294;29;20124;-85
2024/02/02 08:09:15;;;;;;;7.20;2.78;;;;;;;;;;4827519;29;20073;-84
2024/02/02 08:11:46;;;;;;;5.55;2.97;;;;;;;;;;4832895;29;20050;-85
2024/02/02 08:14:16;;;;;;;7.65;2.80;;;;;;;;;;4849194;29;20054;-83
2024/02/02 08:16:46;;;;;;;15.68;2.75;;;;;;;;;;4842379;29;20054;-86
2024/02/02 08:19:16;;;;;;;6.05;2.67;;;;;;;;;;4842433;29;20053;-85
2024/02/02 08:21:46;;;;;;;9.07;3.33;;;;;;;;;;4842263;29;20046;-86
2024/02/02 08:24:16;;;;;;;8.80;2.80;;;;;;;;;;4850642;29;20480;-84
2024/02/02 08:26:47;;;;;;;11.30;3.15;;;;;;;;;;4843791;29;20473;-83
2024/02/02 08:29:17;;;;;;;9.80;2.97;;;;;;;;;;4828560;29;20050;-82
2024/02/02 08:31:48;;;;;;;6.35;3.03;;;;;;;;;;4844285;29;20054;-84
2024/02/02 08:34:18;;;;;;;5.72;2.60;;;;;;;;;;4845312;29;20049;-83
2024/02/02 08:36:48;;;;;;;6.80;2.80;;;;;;;;;;4827143;29;20062;-83
2024/02/02 08:39:18;;;;;;;6.43;2.50;;;;;;;;;;4842563;29;20056;-83
2024/02/02 08:41:48;;;;;;;6.32;2.92;;;;;;;;;;4826832;29;20125;-83
2024/02/02 08:44:23;;;;;;;8.07;3.10;;;;;;;;;;4828279;29;20382;-86
2024/02/02 08:46:54;;;;;;;10.13;2.97;;;;;;;;;;4828401;29;20064;-84
2024/02/02 08:49:42;;;;;;;7.00;3.13;;;;;;;;;;4825549;29;20050;-84
2024/02/02 08:52:30;;;;;;;8.40;2.83;;;;;;;;;;4826524;29;20049;-85
2024/02/02 08:55:07;;;;;;;6.03;2.65;;;;;;;;;;4843522;29;20465;-87
2024/02/02 08:58:01;;;;;;;6.45;3.08;;;;;;;;;;4826534;29;20050;-85
2024/02/02 09:00:38;;;;;;;6.97;2.90;;;;;;;;;;4846665;29;20037;-87
2024/02/02 09:03:30;;;;;;;8.07;3.58;;;;;;;;;;4826156;29;20525;-87
2024/02/02 09:06:07;;;;;;;8.23;3.13;;;;;;;;;;4827322;29;20053;-85
2024/02/02 09:08:41;;;;;;;5.63;2.63;;;;;;;;;;4831447;29;20050;-85
2024/02/02 09:11:23;;;;;;;11.20;3.40;;;;;;;;;;4845640;29;20046;-87
2024/02/02 09:14:17;;;;;;;9.48;3.30;;;;;;;;;;4838473;29;20049;-85
2024/02/02 09:16:52;;;;;;;6.65;2.83;;;;;;;;;;4845099;29;20057;-85
2024/02/02 09:19:31;;;;;;;8.63;2.60;;;;;;;;;;4845861;29;20049;-84
2024/02/02 09:22:06;;;;;;;4.97;2.45;;;;;;;;;;4847368;29;20054;-84
2024/02/02 09:24:47;;;;;;;9.25;3.20;;;;;;;;;;4837708;29;20351;-83
2024/02/02 09:27:41;;;;;;;5.32;2.70;;;;;;;;;;4829481;29;20087;-83
2024/02/02 09:30:20;;;;;;;7.18;2.80;;;;;;;;;;4845741;29;20054;-83
2024/02/02 09:32:51;;;;;;;7.95;3.03;;;;;;;;;;4828531;29;20058;-83
2024/02/02 09:35:40;;;;;;;9.23;2.90;;;;;;;;;;4829972;29;20053;-84
2024/02/02 09:38:13;;;;;;;6.70;2.90;;;;;;;;;;4846832;29;20108;-84
2024/02/02 09:41:13;;;;;;;10.55;2.47;;;;;;;;;;4847473;29;20042;-85
2024/02/02 09:44:28;;;;;;;7.05;2.53;;;;;;;;;;4845561;29;20050;-83
2024/02/02 09:47:28;;;;;;;8.40;2.80;;;;;;;;;;4841144;29;20070;-85
2024/02/02 09:50:08;;;;;;;;;;;;;;;;;;4845717;29;20052;-85
2024/02/02 09:52:53;;;;;;;7.78;2.75;;;;;;;;;;4827135;29;19924;-84
2024/02/02 09:55:33;;;;;;;7.05;2.42;;;;;;;;;;4823446;29;20079;-85
2024/02/02 09:58:35;;;;;;;8.68;2.58;;;;;;;;;;4826554;29;20141;-85
2024/02/02 10:01:43;;;;;;;8.90;3.00;;;;;;;;;;4814895;29;20061;-85
2024/02/02 10:04:38;;;;;;;7.45;2.30;;;;;;;;;;4840223;29;20050;-84
2024/02/02 10:07:11;;;;;;;7.50;2.60;;;;;;;;;;4833833;29;20042;-86
2024/02/02 10:10:26;;;;;;;7.55;2.38;;;;;;;;;;4846712;29;20061;-86
2024/02/02 10:13:14;;;;;;;11.60;2.30;;;;;;;;;;4839980;29;20061;-85
2024/02/02 10:16:21;;;;;;;7.05;2.05;;;;;;;;;;4841392;29;20039;-86
2024/02/02 10:19:12;;;;;;;10.77;2.22;;;;;;;;;;4831266;29;20060;-86
2024/02/02 10:22:24;;;;;;;7.22;1.90;;;;;;;;;;4845412;29;20409;-86
2024/02/02 10:25:16;;;;;;;14.68;2.60;;;;;;;;;;4837850;29;20054;-85
2024/02/02 10:28:35;;;;;;;6.85;2.17;;;;;;;;;;4826635;29;20054;-87
2024/02/02 10:31:59;;;;;;;8.25;2.33;;;;;;;;;;4807658;29;20050;-86
2024/02/02 10:34:48;;;;;;;7.10;2.55;;;;;;;;;;4803662;29;20092;-86
2024/02/02 10:37:35;;;;;;;12.93;2.60;;;;;;;;;;4842399;29;20049;-87
2024/02/02 10:40:08;;;;;;;6.07;2.17;;;;;;;;;;4831435;29;20050;-88
2024/02/02 10:43:08;;;;;;;8.02;2.20;;;;;;;;;;4834060;29;20054;-86
2024/02/02 10:46:06;;;;;;;5.68;1.83;;;;;;;;;;4822887;29;20058;-87
2024/02/02 10:48:39;;;;;;;6.72;2.22;;;;;;;;;;4834753;29;20429;-86
2024/02/02 10:51:28;;;;;;;8.77;2.22;;;;;;;;;;4823867;29;20042;-86
2024/02/02 10:54:10;;;;;;;5.95;2.05;;;;;;;;;;4838748;29;20054;-87
2024/02/02 10:57:05;;;;;;;4.63;2.17;;;;;;;;;;4823736;29;20424;-88
2024/02/02 10:59:36;;;;;;;4.32;2.55;;;;;;;;;;4814941;29;20050;-89
2024/02/02 11:02:32;;;;;;;3.25;1.90;;;;;;;;;;4833234;29;20060;-88
2024/02/02 11:05:16;;;;;;;4.18;1.80;;;;;;;;;;4815872;29;20058;-87
2024/02/02 11:07:56;;;;;;;4.03;2.20;;;;;;;;;;4823127;29;20061;-87
2024/02/02 11:10:59;;;;;;;5.07;2.25;;;;;;;;;;4844803;29;20053;-86
2024/02/02 11:13:51;;;;;;;2.78;2.25;;;;;;;;;;4842187;29;20172;-87
2024/02/02 11:16:57;;;;;;;6.30;2.13;;;;;;;;;;4826083;29;20058;-86
2024/02/02 11:19:35;;;;;;;3.17;1.73;;;;;;;;;;4828273;29;20057;-86
2024/02/02 11:22:23;;;;;;;4.38;1.77;;;;;;;;;;4826355;29;20054;-87
2024/02/02 11:25:08;;;;;;;3.20;1.75;;;;;;;;;;4826971;29;20058;-88
2024/02/02 11:27:55;;;;;;;3.63;2.15;;;;;;;;;;4825480;29;20061;-90
2024/02/02 11:31:01;;;;;;;4.25;2.33;;;;;;;;;;4826668;29;20058;-87
2024/02/02 11:34:09;;;;;;;4.97;1.70;;;;;;;;;;4840274;29;20053;-86
2024/02/02 11:36:42;;;;;;;6.00;2.00;;;;;;;;;;4836721;29;20542;-85
2024/02/02 11:39:19;;;;;;;3.65;1.75;;;;;;;;;;4810428;29;20426;-87
2024/02/02 11:41:50;;;;;;;5.72;2.03;;;;;;;;;;4831329;29;20057;-86
2024/02/02 11:44:22;;;;;;;3.90;2.58;;;;;;;;;;4826089;29;20069;-86
2024/02/02 11:46:54;;;;;;;3.55;1.98;;;;;;;;;;4825669;29;20069;-87
2024/02/02 11:49:30;;;;;;;3.85;2.05;;;;;;;;;;4842168;29;20046;-86
2024/02/02 11:52:09;;;;;;;4.28;2.17;;;;;;;;;;4840816;29;20413;-86
2024/02/02 11:54:51;;;;;;;8.23;1.77;;;;;;;;;;4840996;29;20058;-86
2024/02/02 11:57:28;;;;;;;3.00;1.60;;;;;;;;;;4841556;29;20049;-86
2024/02/02 12:00:01;;;;;;;3.40;1.80;;;;;;;;;;4846728;29;20416;-86
2024/02/02 12:02:54;;;;;;;6.50;1.70;;;;;;;;;;4845603;29;20061;-85
2024/02/02 12:05:28;;;;;;;3.60;2.20;;;;;;;;;;4842212;29;20409;-87
2024/02/02 12:08:27;;;;;;;4.22;1.95;;;;;;;;;;4842096;29;20061;-83
2024/02/02 12:11:01;;;;;;;3.70;1.90;;;;;;;;;;4860181;29;20061;-87
2024/02/02 12:13:32;;;;;;;4.68;2.05;;;;;;;;;;4844402;29;20050;-88
2024/02/02 12:16:04;;;;;;;4.43;1.77;;;;;;;;;;4826994;29;20053;-85
2024/02/02 12:18:37;;;;;;;5.70;1.80;;;;;;;;;;4842414;29;20056;-86
2024/02/02 12:21:15;;;;;;;3.28;1.70;;;;;;;;;;4827441;29;20061;-86
2024/02/02 12:23:47;;;;;;;3.47;1.80;;;;;;;;;;4826105;29;20135;-88
2024/02/02 12:26:17;;;;;;;2.53;1.73;;;;;;;;;;4844915;29;20042;-86
2024/02/02 12:28:48;;;;;;;3.60;1.92;;;;;;;;;;4843505;29;20054;-84
2024/02/02 12:31:18;;;;;;;3.53;1.92;;;;;;;;;;4842780;29;20513;-84
2024/02/02 12:33:49;;;;;;;3.15;1.63;;;;;;;;;;4840554;29;20061;-88
2024/02/02 12:36:21;;;;;;;3.70;1.92;;;;;;;;;;4842487;29;20042;-86
2024/02/02 12:38:53;;;;;;;4.35;1.90;;;;;;;;;;4842854;29;20061;-86
2024/02/02 12:41:23;;;;;;;6.28;1.80;;;;;;;;;;4850728;29;20042;-83
2024/02/02 12:43:57;;;;;;;3.10;1.75;;;;;;;;;;4839317;29;20054;-86
2024/02/02 12:46:30;;;;;;;4.63;1.90;;;;;;;;;;4849653;29;20056;-84
2024/02/02 12:49:00;;;;;;;7.00;2.33;;;;;;;;;;4851475;29;20069;-85
2024/02/02 12:51:31;;;;;;;5.03;1.83;;;;;;;;;;4844296;29;20517;-88
2024/02/02 12:54:02;;;;;;;6.32;1.98;;;;;;;;;;4842426;29;20046;-87
2024/02/02 12:56:32;;;;;;;;;;;;;;;;;;4844096;29;20164;-88
2024/02/02 12:59:04;;;;;;;4.03;1.60;;;;;;;;;;4840859;29;19924;-88
2024/02/02 13:01:36;;;;;;;3.05;2.10;;;;;;;;;;4842096;29;20410;-87
2024/02/02 13:04:08;;;;;;;6.05;2.10;;;;;;;;;;4831864;29;20058;-88
2024/02/02 13:06:45;;;;;;;4.50;2.50;;;;;;;;;;4811987;29;20454;-88
2024/02/02 13:09:29;;;;;;;2.95;2.00;;;;;;;;;;4811036;29;20058;-88
2024/02/02 13:12:06;;;;;;;4.15;2.38;;;;;;;;;;4789764;29;20051;-88
2024/02/02 13:14:36;;;;;;;9.85;7.22;;;;;;;;;;4796548;29;20046;-86
2024/02/02 13:17:12;;;;;;;6.65;1.98;;;;;;;;;;4824360;29;20046;-90
2024/02/02 13:19:45;;;;;;;3.00;1.63;;;;;;;;;;4807920;29;20061;-89
2024/02/02 13:22:26;;;;;;;4.05;1.58;;;;;;;;;;4808394;29;20050;-88
2024/02/02 13:24:58;;;;;;;3.30;1.40;;;;;;;;;;4825440;29;20051;-89
2024/02/02 13:27:30;;;;;;;5.18;1.50;;;;;;;;;;4832780;29;20042;-89
2024/02/02 13:30:04;;;;;;;3.85;1.58;;;;;;;;;;4823040;29;20049;-89
2024/02/02 13:32:38;;;;;;;6.82;1.60;;;;;;;;;;4801577;29;20054;-88
2024/02/02 13:35:12;;;;;;;4.10;1.60;;;;;;;;;;4819835;29;20065;-86
2024/02/02 13:37:43;;;;;;;4.55;1.70;;;;;;;;;;4825916;29;20047;-87
2024/02/02 13:40:14;;;;;;;3.70;1.70;;;;;;;;;;4819160;29;20421;-86
2024/02/02 13:42:47;;;;;;;11.45;2.00;;;;;;;;;;4828199;29;20058;-87
2024/02/02 13:45:17;;;;;;;4.20;1.52;;;;;;;;;;4831075;29;20050;-86
2024/02/02 13:47:56;;;;;;;2.85;1.52;;;;;;;;;;4843695;29;20461;-83
2024/02/02 13:50:30;;;;;;;3.80;1.70;;;;;;;;;;4844806;29;20054;-83
2024/02/02 13:53:01;;;;;;;3.00;1.58;;;;;;;;;;4838204;29;20046;-83
2024/02/02 13:55:32;;;;;;;2.88;1.73;;;;;;;;;;4842164;29;20060;-83
2024/02/02 13:58:05;;;;;;;3.35;1.60;;;;;;;;;;4844163;29;20057;-84
2024/02/02 14:00:36;;;;;;;2.15;1.40;;;;;;;;;;4833744;29;20050;-87
2024/02/02 14:03:09;;;;;;;2.10;1.60;;;;;;;;;;4826629;29;20062;-89
2024/02/02 14:05:41;;;;;;;3.55;1.80;;;;;;;;;;4827250;29;20053;-90
2024/02/02 14:08:14;;;;;;;3.17;1.45;;;;;;;;;;4826621;29;20054;-86
2024/02/02 14:10:50;;;;;;;3.88;1.48;;;;;;;;;;4825733;29;20057;-86
2024/02/02 14:13:21;;;;;;;4.32;1.48;;;;;;;;;;4826947;29;20049;-87
2024/02/02 14:15:55;;;;;;;3.25;1.30;;;;;;;;;;4810362;29;20054;-87
2024/02/02 14:18:26;;;;;;;3.08;1.45;;;;;;;;;;4826208;29;20054;-86
2024/02/02 14:20:56;;;;;;;5.50;1.60;;;;;;;;;;4825262;29;20065;-84
2024/02/02 14:23:26;;;;;;;5.40;1.25;;;;;;;;;;4824138;29;20509;-85
2024/02/02 14:26:09;;;;;;;3.55;1.30;;;;;;;;;;4825660;29;20063;-89
2024/02/02 14:28:39;;;;;;;4.05;1.20;;;;;;;;;;4825265;29;20407;-86
2024/02/02 14:31:10;;;;;;;2.67;1.60;;;;;;;;;;4825519;29;20058;-85
2024/02/02 14:33:41;;;;;;;2.92;1.60;;;;;;;;;;4825916;29;20050;-86
2024/02/02 14:36:14;;;;;;;4.05;1.40;;;;;;;;;;4824418;29;20054;-86
2024/02/02 14:38:46;;;;;;;3.05;1.40;;;;;;;;;;4827604;29;20060;-85
2024/02/02 14:41:15;;;;;;;;;;;;;;;;;;4842939;29;20046;-85
2024/02/02 14:43:46;;;;;;;4.88;1.40;;;;;;;;;;4826978;29;19929;-86
2024/02/02 14:46:20;;;;;;;4.25;1.80;;;;;;;;;;4823300;29;20093;-84
2024/02/02 14:48:51;;;;;;;4.53;1.52;;;;;;;;;;4825325;29;20058;-85
2024/02/02 14:51:23;;;;;;;4.82;1.50;;;;;;;;;;4824918;29;20050;-87
2024/02/02 14:53:53;;;;;;;2.80;1.25;;;;;;;;;;4839414;29;20053;-86
2024/02/02 14:56:26;;;;;;;3.50;1.60;;;;;;;;;;4812202;29;20050;-85
2024/02/02 14:59:07;;;;;;;3.60;1.40;;;;;;;;;;4838971;29;20065;-85
2024/02/02 15:01:39;;;;;;;3.33;1.45;;;;;;;;;;4841343;29;20061;-86
2024/02/02 15:04:10;;;;;;;4.70;1.50;;;;;;;;;;4837701;29;20066;-87
2024/02/02 15:06:40;;;;;;;5.20;1.73;;;;;;;;;;4847488;29;20070;-84
2024/02/02 15:09:16;;;;;;;;;;;;;;;;;;4844989;29;20133;-85
2024/02/02 15:11:46;;;;;;;3.08;1.40;;;;;;;;;;4859710;29;19924;-84
2024/02/02 15:14:16;;;;;;;3.42;1.60;;;;;;;;;;4861420;29;20052;-85
2024/02/02 15:16:46;;;;;;;3.92;1.80;;;;;;;;;;4862171;29;20045;-88
2024/02/02 15:19:16;;;;;;;4.85;3.25;;;;;;;;;;4860530;29;20057;-89
2024/02/02 15:21:46;;;;;;;5.30;1.67;;;;;;;;;;4844848;29;20054;-85
2024/02/02 15:24:20;;;;;;;1.83;1.38;;;;;;;;;;4862099;29;20425;-86
2024/02/02 15:26:50;;;;;;;4.10;1.48;;;;;;;;;;4861077;29;20053;-88
2024/02/02 15:29:20;;;;;;;4.95;1.75;;;;;;;;;;4862070;29;20049;-85
2024/02/02 15:31:50;;;;;;;2.50;1.35;;;;;;;;;;4860333;29;20046;-85
2024/02/02 15:34:23;;;;;;;3.47;1.70;;;;;;;;;;4844379;29;20062;-87
2024/02/02 15:36:54;;;;;;;2.58;1.35;;;;;;;;;;4860058;29;20054;-87
2024/02/02 15:39:25;;;;;;;3.60;1.73;;;;;;;;;;4844617;29;20049;-87